Time;durP1;ratioP1;P1;durP2;ratioP2;P2;SDS_P1;SDS_P2;PMS_P1;PMS_P2;Temp;Humidity;BMP_temperature;BMP_pressure;BME280_temperature;BME280_humidity;BME280_pressure;Samples;Min_cycle;Max_cycle;Signal;HPM_P1;HPM_P2
2022/05/01 00:00:02;;;;;;;7.93;4.20;;;;;;;9.19;100.00;101404.38;6015702;29;20069;-96
2022/05/01 00:03:06;;;;;;;6.20;4.10;;;;;;;9.16;100.00;101389.06;5983116;29;20045;-96
2022/05/01 00:06:10;;;;;;;5.00;4.10;;;;;;;9.14;100.00;101395.22;6017350;29;20041;-95
2022/05/01 00:09:12;;;;;;;6.28;4.10;;;;;;;9.22;100.00;101396.44;6016166;29;20050;-96
2022/05/01 00:12:13;;;;;;;6.30;4.43;;;;;;;9.14;100.00;101397.81;6018660;29;20567;-96
2022/05/01 00:15:16;;;;;;;9.88;4.70;;;;;;;9.04;100.00;101389.78;6019880;29;20041;-96
2022/05/01 00:18:18;;;;;;;7.05;4.80;;;;;;;9.02;100.00;101381.31;6008187;29;20052;-96
2022/05/01 00:21:21;;;;;;;8.18;4.68;;;;;;;8.98;100.00;101378.06;6004564;29;20503;-96
2022/05/01 00:24:23;;;;;;;6.63;4.85;;;;;;;8.95;100.00;101387.75;5997772;29;20069;-96
2022/05/01 00:27:24;;;;;;;6.97;4.38;;;;;;;9.00;100.00;101390.91;6016791;29;20411;-96
2022/05/01 00:30:26;;;;;;;8.65;5.13;;;;;;;8.97;100.00;101388.50;6008326;29;20408;-96
2022/05/01 00:36:48;;;;;;;7.18;4.70;;;;;;;8.89;100.00;101388.91;6004508;29;20045;-96
2022/05/01 00:39:50;;;;;;;6.18;4.40;;;;;;;8.93;100.00;101393.00;6002820;29;20053;-96
2022/05/01 00:42:52;;;;;;;8.70;4.82;;;;;;;8.90;100.00;101389.78;6007332;29;20094;-96
2022/05/01 00:45:54;;;;;;;7.22;4.57;;;;;;;8.89;100.00;101391.50;6007104;29;20164;-96
2022/05/01 00:48:56;;;;;;;5.97;4.38;;;;;;;8.91;100.00;101394.81;6000000;29;20037;-96
2022/05/01 00:52:00;;;;;;;7.38;4.43;;;;;;;8.90;100.00;101393.19;6021550;29;20037;-96
2022/05/01 00:55:02;;;;;;;6.80;4.47;;;;;;;9.11;100.00;101396.25;6010218;29;20050;-96
2022/05/01 00:58:06;;;;;;;6.47;4.70;;;;;;;8.95;100.00;101401.47;6025790;29;20530;-96
2022/05/01 01:01:08;;;;;;;8.15;4.40;;;;;;;8.92;100.00;101390.50;5984334;29;20150;-96
2022/05/01 01:04:11;;;;;;;6.18;4.60;;;;;;;8.83;100.00;101390.09;6007717;29;21231;-96
2022/05/01 01:07:13;;;;;;;7.72;4.55;;;;;;;8.78;100.00;101394.72;6013301;29;20097;-96
2022/05/01 01:10:16;;;;;;;7.57;4.35;;;;;;;8.79;100.00;101386.06;6013946;29;20049;-96
2022/05/01 01:13:30;;;;;;;8.77;4.40;;;;;;;8.75;100.00;101388.91;6021812;29;20487;-96
2022/05/01 01:16:36;;;;;;;6.38;4.85;;;;;;;8.72;100.00;101384.75;6020046;29;20072;-96
2022/05/01 01:19:38;;;;;;;7.25;4.45;;;;;;;8.71;100.00;101393.38;5998174;29;20053;-96
2022/05/01 01:22:42;;;;;;;7.65;4.50;;;;;;;8.78;100.00;101388.72;6012617;29;20054;-96
2022/05/01 01:25:45;;;;;;;6.50;4.45;;;;;;;8.74;100.00;101388.03;6023073;29;20132;-96
2022/05/01 01:28:47;;;;;;;6.88;4.65;;;;;;;8.70;100.00;101398.66;6031375;29;20132;-96
2022/05/01 01:31:50;;;;;;;6.53;4.22;;;;;;;8.79;100.00;101395.53;6014905;29;20140;-96
2022/05/01 01:34:54;;;;;;;7.68;4.65;;;;;;;8.65;100.00;101388.59;5998926;29;20045;-96
2022/05/01 01:37:57;;;;;;;8.30;4.45;;;;;;;8.62;100.00;101388.75;6015622;29;20041;-96
2022/05/01 01:41:03;;;;;;;7.00;4.55;;;;;;;8.63;100.00;101395.59;6012983;29;20056;-96
2022/05/01 01:44:05;;;;;;;8.07;4.88;;;;;;;8.53;100.00;101391.88;6024468;29;20053;-96
2022/05/01 01:47:11;;;;;;;6.15;4.35;;;;;;;8.48;100.00;101402.44;6014214;29;20417;-96
2022/05/01 01:50:13;;;;;;;8.07;4.38;;;;;;;8.50;100.00;101394.63;6019266;29;20053;-96
2022/05/01 01:53:17;;;;;;;6.93;4.53;;;;;;;8.50;100.00;101398.03;6012604;29;20046;-96
2022/05/01 01:56:19;;;;;;;5.40;4.43;;;;;;;8.47;100.00;101403.38;6038394;29;20055;-96
2022/05/01 01:59:22;;;;;;;5.95;4.57;;;;;;;8.56;100.00;101402.84;6039664;29;20132;-96
2022/05/01 02:02:27;;;;;;;6.00;4.35;;;;;;;8.58;100.00;101397.59;6021614;29;20053;-96
2022/05/01 02:05:30;;;;;;;7.78;4.70;;;;;;;8.46;100.00;101400.88;6025176;29;20042;-96
2022/05/01 02:08:34;;;;;;;5.47;4.40;;;;;;;8.37;100.00;101395.28;6033995;29;20041;-96
2022/05/01 02:11:36;;;;;;;6.68;4.32;;;;;;;8.30;100.00;101395.72;6002844;29;20049;-96
2022/05/01 02:14:39;;;;;;;5.45;4.53;;;;;;;8.27;100.00;101406.16;6021054;29;20046;-96
2022/05/01 02:17:42;;;;;;;8.25;4.65;;;;;;;8.25;100.00;101400.25;6025032;29;20208;-96
2022/05/01 02:24:12;;;;;;;6.80;4.32;;;;;;;8.28;100.00;101393.19;6024533;29;20057;-96
2022/05/01 02:27:14;;;;;;;6.20;3.92;;;;;;;8.33;100.00;101388.63;6027267;29;20511;-96
2022/05/01 02:30:18;;;;;;;6.68;4.80;;;;;;;8.26;100.00;101379.56;6036521;29;20399;-96
2022/05/01 02:33:20;;;;;;;6.18;4.00;;;;;;;8.23;100.00;101387.47;6015515;29;20177;-96
2022/05/01 02:36:22;;;;;;;6.50;4.40;;;;;;;8.21;100.00;101378.97;6036350;29;20046;-96
2022/05/01 02:39:24;;;;;;;7.35;4.97;;;;;;;8.06;100.00;101379.81;6026453;29;20304;-96
2022/05/01 02:42:26;;;;;;;6.82;4.15;;;;;;;8.11;100.00;101383.81;6036072;29;20459;-96
2022/05/01 02:45:28;;;;;;;9.55;4.47;;;;;;;8.02;100.00;101386.88;6027576;29;20512;-96
2022/05/01 02:48:30;;;;;;;8.80;4.72;;;;;;;7.99;100.00;101387.88;6028009;29;20098;-96
2022/05/01 02:51:32;;;;;;;8.52;4.40;;;;;;;7.94;100.00;101392.47;5992146;29;20109;-96
2022/05/01 02:54:34;;;;;;;6.43;4.05;;;;;;;7.90;100.00;101384.97;6013970;29;20634;-96
2022/05/01 02:57:36;;;;;;;6.45;4.05;;;;;;;8.18;100.00;101382.56;6023747;29;20234;-96
2022/05/01 03:00:38;;;;;;;7.05;4.32;;;;;;;8.11;100.00;101377.81;6019476;29;20042;-96
2022/05/01 03:03:41;;;;;;;6.85;4.47;;;;;;;7.96;100.00;101377.75;6017978;29;20411;-96
2022/05/01 03:06:43;;;;;;;8.40;4.88;;;;;;;7.98;100.00;101380.25;6022406;29;20484;-96
2022/05/01 03:09:44;;;;;;;7.55;4.53;;;;;;;7.99;100.00;101374.16;6024853;29;20057;-96
2022/05/01 03:12:47;;;;;;;9.40;4.78;;;;;;;7.94;100.00;101374.41;6020100;29;20257;-96
2022/05/01 03:15:49;;;;;;;8.25;4.38;;;;;;;7.84;100.00;101377.56;6026634;29;20384;-96
2022/05/01 03:22:21;;;;;;;;;;;;;;;7.80;100.00;101373.50;6008273;29;20612;-96
2022/05/01 03:25:23;;;;;;;7.45;4.03;;;;;;;7.79;100.00;101372.66;6004052;29;20033;-96
2022/05/01 03:28:26;;;;;;;7.95;5.25;;;;;;;7.83;100.00;101366.44;6010821;29;20061;-96
2022/05/01 03:31:28;;;;;;;6.95;4.70;;;;;;;7.82;100.00;101364.75;6005408;29;20058;-96
2022/05/01 03:34:29;;;;;;;5.70;4.10;;;;;;;7.81;100.00;101370.03;5990508;29;20050;-96
2022/05/01 03:37:31;;;;;;;7.10;4.40;;;;;;;7.76;100.00;101367.69;6005626;29;20056;-96
2022/05/01 03:40:35;;;;;;;8.40;4.60;;;;;;;7.78;100.00;101365.88;6012002;29;20064;-96
2022/05/01 03:43:37;;;;;;;7.88;4.35;;;;;;;7.62;100.00;101365.81;6005718;29;20069;-96
2022/05/01 03:46:39;;;;;;;9.45;4.03;;;;;;;7.72;100.00;101361.84;6004089;29;20065;-96
2022/05/01 03:49:43;;;;;;;7.38;4.40;;;;;;;7.59;100.00;101372.91;6004324;29;20273;-96
2022/05/01 03:52:47;;;;;;;7.97;4.47;;;;;;;7.50;100.00;101366.47;5996941;29;20153;-96
2022/05/01 03:55:49;;;;;;;7.35;4.95;;;;;;;7.55;100.00;101378.22;6003602;29;20062;-96
2022/05/01 03:58:51;;;;;;;7.63;4.43;;;;;;;7.58;100.00;101372.06;5999373;29;20064;-96
2022/05/01 04:01:54;;;;;;;8.80;4.82;;;;;;;7.59;100.00;101370.31;6019158;29;20420;-96
2022/05/01 04:04:57;;;;;;;8.75;4.97;;;;;;;7.57;100.00;101372.16;6019033;29;20057;-96
2022/05/01 04:07:59;;;;;;;7.40;4.28;;;;;;;7.65;100.00;101372.56;6029606;29;20049;-96
2022/05/01 04:11:02;;;;;;;7.07;4.68;;;;;;;7.72;100.00;101379.88;6032446;29;20054;-96
2022/05/01 04:14:06;;;;;;;7.63;4.50;;;;;;;7.70;100.00;101374.00;6022286;29;20052;-96
2022/05/01 04:17:08;;;;;;;10.57;4.90;;;;;;;7.72;100.00;101379.06;6025912;29;20053;-95
2022/05/01 04:20:16;;;;;;;7.70;4.75;;;;;;;7.82;100.00;101387.97;6015823;29;20529;-96
2022/05/01 04:23:20;;;;;;;6.90;4.28;;;;;;;7.80;100.00;101394.09;6022865;29;20048;-96
2022/05/01 04:26:21;;;;;;;10.27;5.00;;;;;;;7.69;100.00;101392.94;5983167;29;20129;-96
2022/05/01 04:29:43;;;;;;;7.38;4.55;;;;;;;7.81;100.00;101388.06;6024942;29;20080;-94
2022/05/01 04:32:58;;;;;;;10.15;4.30;;;;;;;7.83;100.00;101387.06;6032454;29;20069;-96
2022/05/01 04:36:00;;;;;;;8.35;5.10;;;;;;;7.73;100.00;101389.28;6030851;29;20119;-96
2022/05/01 04:39:01;;;;;;;5.90;4.70;;;;;;;7.80;100.00;101386.38;6035880;29;20153;-96
2022/05/01 04:42:04;;;;;;;8.82;4.50;;;;;;;7.77;100.00;101385.63;6010549;29;20042;-96
2022/05/01 04:45:06;;;;;;;8.02;4.80;;;;;;;7.81;100.00;101380.31;6002424;29;20041;-96
2022/05/01 04:48:10;;;;;;;9.73;4.95;;;;;;;7.85;100.00;101389.53;6011131;29;20086;-96
2022/05/01 04:51:12;;;;;;;5.43;4.22;;;;;;;7.87;100.00;101391.13;6014694;29;20599;-96
2022/05/01 04:54:13;;;;;;;8.68;4.82;;;;;;;8.02;100.00;101393.78;6033966;29;20041;-96
2022/05/01 04:57:15;;;;;;;7.30;4.93;;;;;;;8.02;100.00;101401.53;6030303;29;20475;-96
2022/05/01 05:00:19;;;;;;;8.70;4.95;;;;;;;7.94;100.00;101397.59;6011600;29;20049;-96
2022/05/01 05:03:21;;;;;;;7.50;4.38;;;;;;;8.11;100.00;101398.47;6026629;29;20053;-96
2022/05/01 05:06:24;;;;;;;9.77;5.20;;;;;;;8.13;100.00;101394.06;6025813;29;20067;-96
2022/05/01 05:12:48;;;;;;;7.85;4.53;;;;;;;8.28;100.00;101395.78;6023747;29;20052;-96
2022/05/01 05:15:53;;;;;;;7.22;4.78;;;;;;;8.34;100.00;101399.75;6024837;29;20045;-96
2022/05/01 05:18:55;;;;;;;8.20;4.88;;;;;;;8.29;100.00;101392.28;6027430;29;20717;-96
2022/05/01 05:21:57;;;;;;;7.32;4.57;;;;;;;8.27;100.00;101406.16;6025971;29;20077;-96
2022/05/01 05:24:59;;;;;;;8.70;4.85;;;;;;;8.32;100.00;101406.75;6027786;29;20037;-96
2022/05/01 05:28:00;;;;;;;10.23;4.65;;;;;;;8.26;100.00;101409.69;6025319;29;20053;-96
2022/05/01 05:31:03;;;;;;;7.13;4.78;;;;;;;8.33;100.00;101409.25;6028382;29;20239;-96
2022/05/01 05:34:05;;;;;;;9.50;5.00;;;;;;;8.34;100.00;101412.66;6028177;29;20458;-96
2022/05/01 05:37:07;;;;;;;9.85;5.07;;;;;;;8.53;100.00;101412.50;6032101;29;20046;-96
2022/05/01 05:40:10;;;;;;;11.43;5.10;;;;;;;8.59;100.00;101407.00;6021135;29;20500;-96
2022/05/01 05:43:12;;;;;;;11.10;5.10;;;;;;;8.58;100.00;101403.59;6019239;29;20132;-96
2022/05/01 05:46:14;;;;;;;9.50;4.93;;;;;;;8.54;100.00;101414.16;6014900;29;20041;-96
2022/05/01 05:49:16;;;;;;;9.15;4.78;;;;;;;8.63;100.00;101418.81;6025397;29;20049;-96
2022/05/01 05:52:18;;;;;;;6.90;5.10;;;;;;;8.52;100.00;101421.16;6028596;29;20526;-96
2022/05/01 05:55:19;;;;;;;9.15;5.00;;;;;;;8.42;100.00;101418.25;6010668;29;20101;-96
2022/05/01 05:58:21;;;;;;;8.73;4.85;;;;;;;8.36;100.00;101410.84;6007932;29;20646;-96
2022/05/01 06:01:24;;;;;;;10.75;4.97;;;;;;;8.40;100.00;101418.34;6016114;29;20049;-96
2022/05/01 06:04:26;;;;;;;8.57;5.28;;;;;;;8.34;100.00;101416.06;5999860;29;20491;-96
2022/05/01 06:07:28;;;;;;;8.85;5.30;;;;;;;8.55;100.00;101418.44;5982247;29;20045;-96
2022/05/01 06:10:30;;;;;;;8.32;5.03;;;;;;;8.60;100.00;101416.41;6018543;29;20037;-96
2022/05/01 06:13:32;;;;;;;7.20;5.38;;;;;;;8.81;100.00;101422.09;6020676;29;20534;-96
2022/05/01 06:16:34;;;;;;;7.97;4.80;;;;;;;9.05;100.00;101419.84;6037864;29;20125;-96
2022/05/01 06:19:36;;;;;;;8.90;4.88;;;;;;;9.21;100.00;101423.19;6022211;29;20056;-96
2022/05/01 06:22:38;;;;;;;10.35;5.22;;;;;;;9.39;100.00;101425.59;6038920;29;20044;-96
2022/05/01 06:25:43;;;;;;;9.20;5.07;;;;;;;9.53;100.00;101430.78;6032483;29;20396;-96
2022/05/01 06:28:44;;;;;;;9.98;5.05;;;;;;;9.62;100.00;101437.19;6035484;29;20057;-96
2022/05/01 06:31:47;;;;;;;12.45;5.07;;;;;;;9.76;100.00;101438.91;6041608;29;20152;-96
2022/05/01 06:34:51;;;;;;;8.35;5.50;;;;;;;9.84;100.00;101437.53;6044292;29;20049;-96
2022/05/01 06:37:52;;;;;;;7.18;4.32;;;;;;;9.87;100.00;101441.69;6027708;29;20056;-96
2022/05/01 06:40:54;;;;;;;8.05;5.05;;;;;;;9.99;100.00;101443.50;6029915;29;20038;-96
2022/05/01 06:43:56;;;;;;;12.07;4.60;;;;;;;10.15;100.00;101448.56;6037767;29;20033;-96
2022/05/01 06:46:58;;;;;;;8.52;5.03;;;;;;;10.25;100.00;101441.88;6028293;29;20041;-96
2022/05/01 06:50:00;;;;;;;7.93;4.75;;;;;;;10.35;100.00;101432.63;6042250;29;20045;-96
2022/05/01 06:53:02;;;;;;;8.73;5.15;;;;;;;10.40;100.00;101437.53;6010675;29;20069;-96
2022/05/01 06:56:05;;;;;;;6.95;5.10;;;;;;;10.54;100.00;101431.47;6030429;29;20064;-96
2022/05/01 06:59:08;;;;;;;7.43;4.85;;;;;;;10.54;100.00;101434.06;6048587;29;20060;-96
2022/05/01 07:02:09;;;;;;;10.05;5.25;;;;;;;10.72;100.00;101432.88;6026228;29;20042;-96
2022/05/01 07:05:11;;;;;;;6.28;4.90;;;;;;;10.78;100.00;101429.03;6059625;29;20049;-96
2022/05/01 07:08:13;;;;;;;9.80;5.25;;;;;;;10.76;100.00;101426.56;6051572;29;20112;-96
2022/05/01 07:11:15;;;;;;;7.05;4.90;;;;;;;10.83;100.00;101431.31;6053705;29;20102;-96
2022/05/01 07:14:17;;;;;;;7.60;5.30;;;;;;;10.89;100.00;101434.34;6034975;29;20094;-96
2022/05/01 07:17:18;;;;;;;7.82;5.18;;;;;;;10.86;100.00;101436.34;6048070;29;20113;-96
2022/05/01 07:20:21;;;;;;;8.57;5.13;;;;;;;10.77;100.00;101437.75;6025742;29;20114;-96
2022/05/01 07:23:24;;;;;;;13.27;5.75;;;;;;;10.71;100.00;101443.34;6056161;29;20057;-96
2022/05/01 07:26:33;;;;;;;7.88;4.82;;;;;;;10.85;100.00;101445.84;6065446;29;20065;-96
2022/05/01 07:29:35;;;;;;;7.60;5.20;;;;;;;11.06;100.00;101442.78;6065521;29;20056;-96
2022/05/01 07:32:37;;;;;;;9.10;5.18;;;;;;;11.21;100.00;101442.59;6045143;29;20050;-96
2022/05/01 07:35:39;;;;;;;9.73;5.57;;;;;;;11.34;100.00;101436.59;6059981;29;20067;-96
2022/05/01 07:38:50;;;;;;;8.25;4.53;;;;;;;11.49;99.37;101432.94;6352207;23;20172;-96
2022/05/01 07:42:10;;;;;;;6.20;4.82;;;;;;;11.77;100.00;101438.81;6028783;29;20072;-96
2022/05/01 07:45:17;;;;;;;8.68;5.13;;;;;;;12.00;100.00;101434.66;6034664;29;20034;-96
2022/05/01 07:48:30;;;;;;;7.70;4.97;;;;;;;12.18;98.39;101438.56;6024445;29;20054;-94
2022/05/01 07:51:38;;;;;;;11.45;5.50;;;;;;;12.20;96.65;101434.09;6031323;29;20065;-96
2022/05/01 07:54:40;;;;;;;9.07;5.30;;;;;;;12.25;96.03;101429.38;6022565;29;20061;-96
2022/05/01 07:57:42;;;;;;;7.70;5.25;;;;;;;12.36;95.00;101435.56;6026524;29;20385;-96
2022/05/01 08:00:51;;;;;;;7.75;5.30;;;;;;;12.52;95.33;101436.16;6036272;29;20062;-96
2022/05/01 08:07:27;;;;;;;11.40;4.63;;;;;;;12.83;89.50;101449.47;6030902;29;20083;-96
2022/05/01 08:10:33;;;;;;;10.50;5.45;;;;;;;12.89;90.87;101441.22;6031928;29;20070;-96
2022/05/01 08:13:37;;;;;;;9.02;5.18;;;;;;;13.01;91.34;101440.31;6026796;29;20048;-96
2022/05/01 08:16:47;;;;;;;7.10;4.78;;;;;;;13.16;89.87;101448.72;6022206;29;20417;-96
2022/05/01 08:23:20;;;;;;;10.90;4.93;;;;;;;13.31;87.79;101444.16;6024518;29;20053;-96
2022/05/01 08:26:27;;;;;;;9.60;4.57;;;;;;;13.35;86.58;101443.81;6015021;29;20052;-96
2022/05/01 08:29:36;;;;;;;11.07;4.65;;;;;;;13.42;88.09;101448.59;6029443;29;20046;-96
2022/05/01 08:32:42;;;;;;;9.48;4.70;;;;;;;13.48;88.05;101442.91;5986812;29;20153;-96
2022/05/01 08:35:53;;;;;;;9.10;5.03;;;;;;;13.51;86.39;101443.47;6010665;29;20050;-96
2022/05/01 08:38:59;;;;;;;8.30;4.97;;;;;;;13.55;88.02;101442.31;6023040;29;20061;-96
2022/05/01 08:42:04;;;;;;;9.73;5.57;;;;;;;13.81;86.56;101442.06;6017197;29;20042;-96
2022/05/01 08:45:10;;;;;;;7.25;5.45;;;;;;;14.07;86.54;101450.44;6015879;29;20523;-96
2022/05/01 08:48:39;;;;;;;7.57;4.93;;;;;;;14.26;80.57;101457.63;6023430;29;20042;-96
2022/05/01 08:51:42;;;;;;;9.57;5.05;;;;;;;14.12;79.60;101453.50;6015434;29;20050;-96
2022/05/01 08:54:46;;;;;;;5.25;4.72;;;;;;;14.03;78.64;101450.78;6003424;29;20053;-96
2022/05/01 08:57:49;;;;;;;9.65;6.38;;;;;;;13.92;79.13;101447.25;6005307;29;20617;-96
2022/05/01 09:01:04;;;;;;;9.75;5.13;;;;;;;13.90;82.49;101446.53;6003820;29;20054;-96
2022/05/01 09:04:08;;;;;;;7.70;4.53;;;;;;;14.00;81.59;101450.09;6009324;29;20050;-96
2022/05/01 09:07:10;;;;;;;8.15;5.30;;;;;;;14.09;81.46;101448.53;6009328;29;20504;-96
2022/05/01 09:10:15;;;;;;;6.30;4.82;;;;;;;14.21;82.61;101447.56;6002679;29;20499;-96
2022/05/01 09:13:23;;;;;;;8.05;4.70;;;;;;;14.35;80.74;101451.66;5975827;29;20045;-96
2022/05/01 09:16:25;;;;;;;7.88;5.43;;;;;;;14.51;74.26;101445.22;5997400;29;20075;-96
2022/05/01 09:19:30;;;;;;;6.85;4.97;;;;;;;14.63;76.22;101445.09;5981930;29;20551;-96
2022/05/01 09:23:00;;;;;;;6.97;4.55;;;;;;;14.94;72.68;101446.97;6005673;29;20041;-96
2022/05/01 09:26:02;;;;;;;6.68;4.32;;;;;;;15.06;73.60;101440.72;6001476;29;20152;-95
2022/05/01 09:29:20;;;;;;;5.50;4.30;;;;;;;15.27;74.38;101449.34;5996725;29;20213;-96
2022/05/01 09:32:37;;;;;;;7.68;4.20;;;;;;;15.52;72.85;101439.44;5996405;29;20053;-96
2022/05/01 09:35:39;;;;;;;5.28;4.05;;;;;;;16.06;64.84;101440.06;6006475;29;20156;-96
2022/05/01 09:38:43;;;;;;;6.60;4.15;;;;;;;16.38;65.72;101444.25;5999507;29;20064;-96
2022/05/01 09:41:50;;;;;;;6.75;3.90;;;;;;;16.44;64.29;101441.06;5981779;29;20046;-96
2022/05/01 09:45:17;;;;;;;7.18;4.10;;;;;;;16.18;63.97;101439.00;6008048;29;20048;-96
2022/05/01 09:48:20;;;;;;;5.38;4.18;;;;;;;16.19;64.91;101445.03;6010194;29;20049;-96
2022/05/01 09:51:23;;;;;;;5.60;3.97;;;;;;;16.48;60.95;101445.91;6008559;29;20094;-96
2022/05/01 09:54:26;;;;;;;5.90;3.90;;;;;;;16.73;62.18;101447.13;5988695;29;20038;-96
2022/05/01 09:57:28;;;;;;;6.25;3.95;;;;;;;16.83;59.26;101443.72;6000208;29;20508;-92
2022/05/01 10:00:40;;;;;;;5.55;3.60;;;;;;;17.18;56.07;101438.69;5991428;29;20169;-96
2022/05/01 10:03:46;;;;;;;6.90;3.58;;;;;;;17.69;54.26;101439.19;6000787;29;20057;-96
2022/05/01 10:06:51;;;;;;;5.47;3.80;;;;;;;18.10;51.23;101436.25;5982190;29;20046;-96
2022/05/01 10:09:57;;;;;;;5.78;3.67;;;;;;;18.10;51.53;101429.19;6008853;29;20034;-96
2022/05/01 10:12:59;;;;;;;4.90;3.50;;;;;;;17.91;48.82;101424.88;5997300;29;20057;-96
2022/05/01 10:16:25;;;;;;;4.65;3.42;;;;;;;17.33;50.50;101430.38;6009054;29;20042;-96
2022/05/01 10:19:31;;;;;;;3.70;3.25;;;;;;;17.13;52.24;101421.78;6000192;29;20046;-92
2022/05/01 10:22:35;;;;;;;5.05;3.83;;;;;;;17.10;46.69;101422.06;5996803;29;20041;-92
2022/05/01 10:25:44;;;;;;;5.05;3.00;;;;;;;17.00;46.25;101417.66;5992090;29;20042;-96
2022/05/01 10:29:28;;;;;;;5.72;3.10;;;;;;;16.85;44.38;101418.25;5974404;29;20050;-94
2022/05/01 10:33:07;;;;;;;3.45;2.95;;;;;;;16.39;43.96;101415.34;5963587;29;20066;-96
2022/05/01 10:36:37;;;;;;;7.60;3.55;;;;;;;16.13;45.38;101408.06;5968560;29;20216;-96
2022/05/01 10:39:40;;;;;;;3.80;3.20;;;;;;;16.33;49.09;101415.91;5977739;29;20042;-96
2022/05/01 10:42:46;;;;;;;3.72;2.83;;;;;;;16.99;46.16;101407.34;5962925;29;20482;-92
2022/05/01 10:45:48;;;;;;;4.28;3.00;;;;;;;17.49;45.54;101401.81;5980336;29;20057;-96
2022/05/01 10:48:55;;;;;;;5.50;3.25;;;;;;;17.57;46.35;101401.09;5970738;29;20066;-96
2022/05/01 10:52:13;;;;;;;3.60;2.83;;;;;;;17.58;45.47;101400.09;5977491;29;20216;-96
2022/05/01 10:55:15;;;;;;;4.82;2.70;;;;;;;17.38;47.61;101397.56;5968809;29;20061;-96
2022/05/01 10:58:20;;;;;;;7.07;3.90;;;;;;;17.37;45.66;101395.13;5976256;29;20488;-96
2022/05/01 11:01:54;;;;;;;4.47;3.63;;;;;;;17.34;48.28;101393.63;5961329;29;20054;-96
2022/05/01 11:04:57;;;;;;;6.80;3.88;;;;;;;17.37;45.36;101395.94;5965151;29;20849;-96
2022/05/01 11:08:00;;;;;;;4.00;3.30;;;;;;;17.32;45.44;101387.69;5954485;29;20049;-96
2022/05/01 11:11:05;;;;;;;4.32;3.17;;;;;;;17.19;46.86;101381.94;6000346;29;20671;-96
2022/05/01 11:14:07;;;;;;;6.82;3.65;;;;;;;17.02;47.17;101378.31;6008213;29;20057;-96
2022/05/01 11:17:09;;;;;;;5.40;3.30;;;;;;;16.83;45.19;101371.31;6003338;29;20083;-96
2022/05/01 11:20:29;;;;;;;5.50;3.55;;;;;;;16.61;45.10;101372.41;6004132;29;20050;-96
2022/05/01 11:23:33;;;;;;;5.00;3.53;;;;;;;16.69;45.38;101371.72;6022522;29;20113;-96
2022/05/01 11:26:35;;;;;;;4.80;3.63;;;;;;;16.65;45.91;101362.53;5992935;29;20049;-96
2022/05/01 11:29:38;;;;;;;4.32;3.92;;;;;;;16.51;47.35;101367.19;6007981;29;20054;-96
2022/05/01 11:32:47;;;;;;;4.63;3.75;;;;;;;16.53;48.58;101364.47;6005616;29;20061;-96
2022/05/01 11:35:58;;;;;;;4.40;3.42;;;;;;;16.62;48.52;101363.63;6021721;29;20042;-96
2022/05/01 11:39:00;;;;;;;5.72;3.60;;;;;;;16.70;48.29;101358.53;6012768;29;20050;-96
2022/05/01 11:42:03;;;;;;;5.95;4.00;;;;;;;16.91;47.85;101358.34;6021468;29;20048;-96
2022/05/01 11:45:13;;;;;;;3.72;3.30;;;;;;;16.99;46.05;101352.41;6212821;23;20037;-96
2022/05/01 11:48:39;;;;;;;5.03;3.92;;;;;;;17.24;47.53;101343.09;6050114;29;20035;-96
2022/05/01 12:10:48;;;;;;;7.95;4.15;;;;;;;19.91;40.69;101326.97;6004750;29;20055;-96
2022/05/01 12:14:24;;;;;;;4.82;3.55;;;;;;;19.90;40.44;101330.59;5988692;29;20043;-96
2022/05/01 12:17:42;;;;;;;6.55;4.05;;;;;;;19.92;40.90;101322.53;5995291;29;20066;-96
2022/05/01 12:20:50;;;;;;;6.13;4.05;;;;;;;19.75;39.43;101326.94;5999786;29;20037;-96
2022/05/01 12:24:01;;;;;;;4.88;3.80;;;;;;;19.35;38.77;101321.41;5984740;29;20054;-96
2022/05/01 12:27:08;;;;;;;5.05;3.22;;;;;;;19.11;39.69;101313.44;5989260;29;20046;-96
2022/05/01 12:30:13;;;;;;;4.55;3.70;;;;;;;18.97;42.27;101322.72;5984032;29;20061;-89
2022/05/01 12:33:19;;;;;;;4.88;3.63;;;;;;;19.04;41.37;101315.03;5973357;29;20061;-96
2022/05/01 12:36:33;;;;;;;5.18;3.63;;;;;;;19.37;38.71;101308.09;5988305;29;20055;-96
2022/05/01 12:39:41;;;;;;;5.28;3.33;;;;;;;19.50;40.47;101318.13;5966629;29;20054;-96
2022/05/01 12:46:30;;;;;;;5.82;3.85;;;;;;;19.26;40.82;101311.03;6009189;29;20050;-96
2022/05/01 12:49:36;;;;;;;4.45;3.20;;;;;;;19.26;41.06;101303.97;5971585;29;20095;-96
2022/05/01 12:52:57;;;;;;;;;;;;;;;;;;;;;
2022/05/01 12:56:22;;;;;;;6.00;3.47;;;;;;;19.34;38.85;101304.00;5998361;29;20134;-96
2022/05/01 12:59:33;;;;;;;5.25;3.60;;;;;;;19.34;40.54;101303.19;5978793;29;20466;-96
2022/05/01 13:02:37;;;;;;;4.50;3.85;;;;;;;19.27;39.93;101307.41;5984220;29;20053;-96
2022/05/01 13:06:09;;;;;;;4.57;3.20;;;;;;;19.36;38.80;101296.78;5995154;29;20058;-96
2022/05/01 13:09:20;;;;;;;3.92;3.08;;;;;;;19.50;39.47;101299.75;5984039;29;20508;-96
2022/05/01 13:12:38;;;;;;;6.10;3.15;;;;;;;19.63;40.61;101299.31;5988188;29;20053;-96
2022/05/01 13:15:47;;;;;;;5.18;3.33;;;;;;;19.53;42.14;101297.66;5991436;29;20050;-96
2022/05/01 13:18:53;;;;;;;3.72;3.33;;;;;;;19.52;42.33;101290.75;5979280;29;20097;-95
2022/05/01 13:21:55;;;;;;;3.72;3.10;;;;;;;19.54;38.60;101288.78;5957669;29;20061;-95
2022/05/01 13:24:58;;;;;;;4.40;3.00;;;;;;;19.67;41.46;101292.75;5942648;29;20053;-96
2022/05/01 13:28:00;;;;;;;5.53;3.97;;;;;;;19.79;41.21;101292.28;5958634;29;20038;-94
2022/05/01 13:31:03;;;;;;;5.05;3.33;;;;;;;19.80;42.15;101287.88;5971893;29;20046;-96
2022/05/01 13:34:05;;;;;;;5.18;3.63;;;;;;;19.93;42.66;101276.88;5938326;29;20050;-95
2022/05/01 13:37:08;;;;;;;4.65;3.13;;;;;;;20.09;39.17;101273.41;5970905;29;20735;-96
2022/05/01 13:46:54;;;;;;;3.63;3.10;;;;;;;20.06;41.34;101265.88;5976711;29;20359;-95
2022/05/01 13:49:56;;;;;;;3.55;2.90;;;;;;;20.22;39.45;101271.09;5975023;29;20134;-95
2022/05/01 13:52:58;;;;;;;3.90;3.00;;;;;;;20.71;37.36;101262.31;5973717;29;20066;-96
2022/05/01 13:55:59;;;;;;;5.93;3.45;;;;;;;21.21;40.32;101261.91;5964217;29;20050;-96
2022/05/01 13:59:02;;;;;;;3.95;3.00;;;;;;;21.77;35.69;101253.88;5960012;29;20066;-96
2022/05/01 14:02:04;;;;;;;6.65;3.28;;;;;;;21.85;36.57;101252.97;5982778;29;20223;-96
2022/05/01 14:05:10;;;;;;;5.25;3.00;;;;;;;21.71;33.98;101252.75;5958981;29;20050;-96
2022/05/01 14:08:12;;;;;;;6.30;3.45;;;;;;;21.37;33.69;101247.84;5974908;29;20089;-96
2022/05/01 14:11:13;;;;;;;3.08;2.78;;;;;;;20.91;35.55;101255.66;5970866;29;20485;-95
2022/05/01 14:14:16;;;;;;;4.50;3.45;;;;;;;21.01;36.42;101240.47;5967502;29;20057;-96
2022/05/01 14:17:18;;;;;;;4.43;3.38;;;;;;;20.82;34.15;101241.72;5989076;29;20045;-96
2022/05/01 14:20:21;;;;;;;6.13;3.30;;;;;;;20.46;36.28;101246.56;5969553;29;20051;-95
2022/05/01 14:23:26;;;;;;;3.38;3.08;;;;;;;20.19;39.33;101235.44;5980328;29;20061;-95
2022/05/01 14:26:28;;;;;;;3.60;2.90;;;;;;;20.09;38.80;101239.25;5962605;29;20045;-96
2022/05/01 14:29:30;;;;;;;3.75;3.15;;;;;;;20.18;36.41;101233.00;5966449;29;20042;-96
2022/05/01 14:32:41;;;;;;;4.18;3.15;;;;;;;20.35;37.65;101226.72;5971701;29;20512;-96
2022/05/01 14:35:48;;;;;;;3.75;2.72;;;;;;;20.64;38.99;101227.97;5971179;29;20054;-96
2022/05/01 14:39:01;;;;;;;4.68;3.05;;;;;;;20.58;38.53;101224.22;5970114;29;20046;-95
2022/05/01 14:42:13;;;;;;;3.20;2.75;;;;;;;20.52;37.69;101213.50;5972036;29;20051;-95
2022/05/01 14:45:18;;;;;;;3.33;3.03;;;;;;;20.46;36.39;101224.72;5968997;29;20061;-95
2022/05/01 14:49:01;;;;;;;5.85;3.28;;;;;;;20.30;36.34;101220.34;5973262;29;20051;-95
2022/05/01 14:52:06;;;;;;;3.53;2.83;;;;;;;19.81;39.53;101221.19;5964426;29;20509;-96
2022/05/01 14:55:08;;;;;;;4.72;3.40;;;;;;;19.63;39.07;101223.16;5978639;29;20047;-95
2022/05/01 15:08:22;;;;;;;4.63;3.00;;;;;;;18.17;41.27;101215.38;5971214;29;20057;-95
2022/05/01 15:11:24;;;;;;;3.08;2.83;;;;;;;18.03;40.55;101215.91;5967123;29;20049;-94
2022/05/01 15:14:27;;;;;;;4.10;3.30;;;;;;;17.99;41.13;101209.38;5969167;29;20079;-95
2022/05/01 15:17:35;;;;;;;4.95;3.28;;;;;;;17.86;42.78;101209.72;5965602;29;20042;-93
2022/05/01 15:20:38;;;;;;;4.90;3.63;;;;;;;17.88;43.28;101206.97;5971402;29;20591;-95
2022/05/01 15:23:51;;;;;;;5.25;3.70;;;;;;;17.72;46.46;101211.09;5973374;29;20500;-95